createdAt,value
2023-04-08T00:01:16.393Z,33.87
2023-04-08T00:03:43.438Z,30.80
2023-04-08T00:06:10.553Z,35.23
2023-04-08T00:08:37.549Z,31.80
2023-04-08T00:11:04.602Z,31.57
2023-04-08T00:13:31.620Z,33.83
2023-04-08T00:15:58.938Z,30.20
2023-04-08T00:18:25.933Z,25.77
2023-04-08T00:20:52.901Z,31.57
2023-04-08T00:23:21.436Z,25.60
2023-04-08T00:25:48.552Z,34.47
2023-04-08T00:28:15.923Z,28.77
2023-04-08T00:30:42.942Z,30.20
2023-04-08T00:33:10.190Z,25.40
2023-04-08T00:35:37.239Z,28.30
2023-04-08T00:38:08.033Z,31.83
2023-04-08T00:40:35.644Z,34.80
2023-04-08T00:43:02.763Z,34.50
2023-04-08T00:45:29.809Z,38.07
2023-04-08T00:47:57.229Z,32.10
2023-04-08T00:50:24.377Z,39.07
2023-04-08T00:52:51.477Z,36.60
2023-04-08T00:55:18.477Z,37.30
2023-04-08T00:57:46.040Z,35.97
2023-04-08T01:00:14.392Z,36.60
2023-04-08T01:03:16.604Z,36.97
2023-04-08T01:06:07.700Z,36.47
2023-04-08T01:08:41.997Z,35.60
2023-04-08T01:11:13.113Z,42.73
2023-04-08T01:13:43.190Z,36.00
2023-04-08T01:16:15.835Z,35.50
2023-04-08T01:18:46.352Z,37.07
2023-04-08T01:21:16.419Z,41.17
2023-04-08T01:23:57.557Z,35.50
2023-04-08T01:26:26.916Z,36.97
2023-04-08T01:29:01.860Z,42.30
2023-04-08T01:31:30.653Z,35.10
2023-04-08T01:34:01.344Z,39.23
2023-04-08T01:36:32.700Z,36.20
2023-04-08T01:39:03.333Z,35.47
2023-04-08T01:41:31.567Z,36.77
2023-04-08T01:43:59.380Z,34.27
2023-04-08T01:46:28.722Z,32.67
2023-04-08T01:48:57.733Z,30.90
2023-04-08T01:51:27.138Z,34.07
2023-04-08T01:53:54.127Z,38.63
2023-04-08T01:56:23.490Z,36.73
2023-04-08T01:58:55.548Z,36.23
2023-04-08T02:01:27.287Z,33.27
2023-04-08T02:03:58.670Z,38.13
2023-04-08T02:06:29.375Z,34.97
2023-04-08T02:08:57.065Z,32.47
2023-04-08T02:11:25.299Z,32.50
2023-04-08T02:13:53.139Z,34.30
2023-04-08T02:16:45.731Z,35.67
2023-04-08T02:19:29.962Z,36.60
2023-04-08T02:22:10.404Z,27.47
2023-04-08T02:24:39.443Z,28.90
2023-04-08T02:27:09.358Z,29.33
2023-04-08T02:29:39.524Z,35.70
2023-04-08T02:32:11.110Z,35.30
2023-04-08T02:34:41.783Z,36.97
2023-04-08T02:37:09.631Z,38.17
2023-04-08T02:39:36.692Z,46.03
2023-04-08T02:42:05.076Z,46.80
2023-04-08T02:44:32.037Z,44.83
2023-04-08T02:46:59.036Z,30.37
2023-04-08T02:49:26.125Z,32.97
2023-04-08T02:51:53.067Z,53.60
2023-04-08T02:54:20.060Z,38.47
2023-04-08T02:56:46.993Z,30.17
2023-04-08T02:59:14.230Z,38.07
2023-04-08T03:01:41.256Z,37.87
2023-04-08T03:04:08.300Z,36.23
2023-04-08T03:06:35.275Z,35.83
2023-04-08T03:09:02.328Z,34.70
2023-04-08T03:11:29.282Z,34.60
2023-04-08T03:13:56.316Z,29.40
2023-04-08T03:16:23.532Z,36.83
2023-04-08T03:18:54.084Z,36.17
2023-04-08T03:21:21.779Z,35.73
2023-04-08T03:23:48.840Z,40.83
2023-04-08T03:26:15.864Z,36.90
2023-04-08T03:28:42.801Z,36.83
2023-04-08T03:31:10.656Z,33.00
2023-04-08T03:33:37.582Z,34.13
2023-04-08T03:36:05.148Z,35.87
2023-04-08T03:38:32.094Z,33.83
2023-04-08T03:40:59.257Z,31.90
2023-04-08T03:43:26.352Z,37.77
2023-04-08T03:45:53.418Z,32.47
2023-04-08T03:48:20.410Z,36.47
2023-04-08T03:50:47.457Z,37.53
2023-04-08T03:53:14.466Z,34.90
2023-04-08T03:55:41.543Z,36.13
2023-04-08T03:58:08.796Z,35.83
2023-04-08T04:00:36.960Z,36.73
2023-04-08T04:03:04.419Z,36.60
2023-04-08T04:05:31.440Z,34.67
2023-04-08T04:07:58.598Z,36.37
2023-04-08T04:10:25.662Z,37.97
2023-04-08T04:12:52.630Z,35.80
2023-04-08T04:15:19.565Z,31.30
2023-04-08T04:17:50.573Z,39.57
2023-04-08T04:20:18.873Z,46.90
2023-04-08T04:22:45.871Z,33.73
2023-04-08T04:25:12.867Z,32.50
2023-04-08T04:27:39.889Z,35.77
2023-04-08T04:30:07.892Z,40.97
2023-04-08T04:32:34.894Z,41.40
2023-04-08T04:35:02.086Z,41.77
2023-04-08T04:37:29.013Z,42.27
2023-04-08T04:39:56.052Z,42.83
2023-04-08T04:42:23.000Z,40.03
2023-04-08T04:44:49.911Z,43.00
2023-04-08T04:47:17.031Z,45.60
2023-04-08T04:49:45.728Z,46.33
2023-04-08T04:52:12.750Z,48.23
2023-04-08T04:54:39.701Z,44.93
2023-04-08T04:57:06.838Z,42.37
2023-04-08T04:59:33.936Z,46.37
2023-04-08T05:02:01.050Z,45.97
2023-04-08T05:04:28.106Z,46.53
2023-04-08T05:06:55.457Z,50.00
2023-04-08T05:09:22.455Z,52.03
2023-04-08T05:11:49.439Z,49.07
2023-04-08T05:14:16.429Z,47.90
2023-04-08T05:16:43.373Z,44.17
2023-04-08T05:19:10.363Z,40.47
2023-04-08T05:21:37.292Z,45.40
2023-04-08T05:24:04.615Z,45.70
2023-04-08T05:26:31.826Z,38.30
2023-04-08T05:28:59.050Z,42.60
2023-04-08T05:31:26.114Z,41.50
2023-04-08T05:33:53.075Z,39.90
2023-04-08T05:36:20.011Z,40.17
2023-04-08T05:38:46.955Z,38.53
2023-04-08T05:41:14.041Z,36.97
2023-04-08T05:43:41.391Z,41.83
2023-04-08T05:46:10.557Z,41.23
2023-04-08T05:48:37.926Z,38.53
2023-04-08T05:51:05.266Z,37.93
2023-04-08T05:53:32.487Z,37.43
2023-04-08T05:55:59.389Z,40.07
2023-04-08T05:58:26.482Z,39.13
2023-04-08T06:00:55.626Z,37.40
2023-04-08T06:03:23.026Z,43.63
2023-04-08T06:05:50.410Z,40.93
2023-04-08T06:08:17.330Z,38.90
2023-04-08T06:10:52.013Z,41.40
2023-04-08T06:13:20.326Z,43.10
2023-04-08T06:15:48.943Z,40.60
2023-04-08T06:18:17.756Z,42.10
2023-04-08T06:20:44.754Z,36.30
2023-04-08T06:23:11.808Z,35.67
2023-04-08T06:25:38.920Z,34.37
2023-04-08T06:28:06.474Z,38.47
2023-04-08T06:30:33.500Z,40.97
2023-04-08T06:33:00.476Z,39.73
2023-04-08T06:35:28.354Z,37.60
2023-04-08T06:37:55.413Z,40.43
2023-04-08T06:40:22.387Z,38.17
2023-04-08T06:42:49.803Z,38.97
2023-04-08T06:45:16.784Z,37.53
2023-04-08T06:47:43.738Z,40.30
2023-04-08T06:50:11.240Z,39.23
2023-04-08T06:52:38.192Z,39.00
2023-04-08T06:55:06.019Z,36.57
2023-04-08T06:57:33.026Z,38.27
2023-04-08T07:00:00.698Z,37.63
2023-04-08T07:02:27.927Z,38.87
2023-04-08T07:04:54.934Z,41.93
2023-04-08T07:07:23.530Z,39.93
2023-04-08T07:09:51.773Z,38.03
2023-04-08T07:12:18.972Z,43.10
2023-04-08T07:14:46.248Z,43.13
2023-04-08T07:17:13.274Z,39.43
2023-04-08T07:19:41.115Z,40.20
2023-04-08T07:22:08.058Z,37.30
2023-04-08T07:24:35.041Z,37.77
2023-04-08T07:27:02.216Z,37.30
2023-04-08T07:29:29.266Z,37.57
2023-04-08T07:31:56.232Z,38.53
2023-04-08T07:34:23.245Z,38.90
2023-04-08T07:36:50.257Z,38.73
2023-04-08T07:39:17.227Z,36.57
2023-04-08T07:41:44.224Z,37.77
2023-04-08T07:44:11.316Z,37.93
2023-04-08T07:46:39.066Z,36.23
2023-04-08T07:49:06.841Z,38.47
2023-04-08T07:51:34.051Z,40.87
2023-04-08T07:54:01.298Z,38.93
2023-04-08T07:56:28.180Z,39.63
2023-04-08T07:58:56.781Z,39.90
2023-04-08T08:01:24.607Z,40.57
2023-04-08T08:03:53.489Z,41.80
2023-04-08T08:06:21.796Z,34.97
2023-04-08T08:08:48.843Z,37.47
2023-04-08T08:11:15.848Z,38.93
2023-04-08T08:13:42.910Z,34.10
2023-04-08T08:16:11.875Z,36.90
2023-04-08T08:18:40.852Z,36.63
2023-04-08T08:21:08.770Z,33.97
2023-04-08T08:23:36.168Z,35.47
2023-04-08T08:26:06.913Z,35.77
2023-04-08T08:28:34.077Z,32.47
2023-04-08T08:31:01.309Z,31.63
2023-04-08T08:33:28.276Z,31.40
2023-04-08T08:35:56.116Z,31.97
2023-04-08T08:38:23.429Z,35.03
2023-04-08T08:41:01.670Z,29.40
2023-04-08T08:43:29.752Z,32.37
2023-04-08T08:45:56.760Z,30.83
2023-04-08T08:48:24.099Z,33.10
2023-04-08T08:50:51.889Z,30.60
2023-04-08T08:53:19.810Z,28.67
2023-04-08T08:56:15.766Z,32.27
2023-04-08T08:58:34.827Z,31.97
2023-04-08T09:01:01.919Z,31.43
2023-04-08T09:03:29.452Z,32.50
2023-04-08T09:05:58.904Z,34.00
2023-04-08T09:08:37.278Z,35.07
2023-04-08T09:11:33.994Z,31.93
2023-04-08T09:14:01.099Z,31.17
2023-04-08T09:16:29.175Z,35.83
2023-04-08T09:19:10.399Z,36.97
2023-04-08T09:21:38.815Z,31.47
2023-04-08T09:24:05.972Z,33.37
2023-04-08T09:26:33.524Z,34.20
2023-04-08T09:29:24.065Z,36.33
2023-04-08T09:31:57.947Z,30.90
2023-04-08T09:34:27.530Z,36.57
2023-04-08T09:36:56.116Z,35.33
2023-04-08T09:39:23.955Z,34.97
2023-04-08T09:41:52.987Z,30.30
2023-04-08T09:44:22.150Z,32.77
2023-04-08T09:47:18.199Z,32.83
2023-04-08T09:49:55.239Z,34.67
2023-04-08T09:52:51.682Z,30.83
2023-04-08T09:55:24.006Z,36.33
2023-04-08T09:58:04.022Z,29.40
2023-04-08T10:00:50.602Z,30.05
2023-04-08T10:03:31.997Z,29.85
2023-04-08T10:06:03.302Z,29.48
2023-04-08T10:08:33.108Z,28.63
2023-04-08T10:11:00.417Z,29.03
2023-04-08T10:13:28.744Z,28.60
2023-04-08T10:16:27.367Z,28.40
2023-04-08T10:18:58.217Z,29.87
2023-04-08T10:21:35.754Z,30.17
2023-04-08T10:24:07.092Z,27.35
2023-04-08T10:26:40.574Z,27.63
2023-04-08T10:29:31.799Z,26.43
2023-04-08T10:31:58.954Z,27.60
2023-04-08T10:34:27.369Z,24.13
2023-04-08T10:36:59.103Z,26.50
2023-04-08T10:39:27.351Z,28.07
2023-04-08T10:41:54.895Z,24.77
2023-04-08T10:44:26.913Z,21.57
2023-04-08T10:46:55.099Z,21.95
2023-04-08T10:49:22.190Z,23.70
2023-04-08T10:51:49.941Z,20.40
2023-04-08T10:54:19.002Z,18.97
2023-04-08T10:56:51.290Z,19.55
2023-04-08T10:59:34.724Z,18.88
2023-04-08T11:02:02.552Z,18.70
2023-04-08T11:04:30.009Z,14.80
2023-04-08T11:06:58.275Z,15.53
2023-04-08T11:09:25.271Z,13.25
2023-04-08T11:11:53.781Z,13.30
2023-04-08T11:14:22.101Z,12.13
2023-04-08T11:16:49.245Z,11.00
2023-04-08T11:19:16.438Z,11.47
2023-04-08T11:21:43.644Z,13.45
2023-04-08T11:24:12.344Z,12.43
2023-04-08T11:26:40.928Z,11.35
2023-04-08T11:29:14.968Z,10.80
2023-04-08T11:31:44.129Z,10.45
2023-04-08T11:34:11.361Z,13.23
2023-04-08T11:36:41.766Z,11.48
2023-04-08T11:39:12.333Z,12.38
2023-04-08T11:41:40.724Z,12.70
2023-04-08T11:44:09.982Z,13.55
2023-04-08T11:46:37.946Z,11.57
2023-04-08T11:49:08.083Z,11.18
2023-04-08T11:51:55.247Z,15.48
2023-04-08T11:54:32.186Z,9.48
2023-04-08T11:57:01.156Z,13.60
2023-04-08T11:59:29.567Z,10.32
2023-04-08T12:01:57.359Z,11.70
2023-04-08T12:04:24.749Z,13.70
2023-04-08T12:06:52.423Z,11.40
2023-04-08T12:09:19.642Z,15.55
2023-04-08T12:11:46.758Z,12.82
2023-04-08T12:14:14.386Z,13.50
2023-04-08T12:16:41.454Z,12.27
2023-04-08T12:19:08.445Z,10.90
2023-04-08T12:21:36.197Z,12.27
2023-04-08T12:24:03.345Z,13.48
2023-04-08T12:26:30.350Z,13.68
2023-04-08T12:28:57.290Z,13.38
2023-04-08T12:31:24.213Z,11.75
2023-04-08T12:33:51.482Z,11.23
2023-04-08T12:36:18.780Z,11.65
2023-04-08T12:38:45.999Z,11.80
2023-04-08T12:41:13.087Z,10.45
2023-04-08T12:43:40.102Z,10.70
2023-04-08T12:46:07.419Z,10.23
2023-04-08T12:48:34.381Z,11.05
2023-04-08T12:51:01.563Z,10.20
2023-04-08T12:53:28.532Z,10.10
2023-04-08T12:55:57.626Z,10.23
2023-04-08T12:58:27.734Z,9.05
2023-04-08T13:00:55.117Z,9.15
2023-04-08T13:03:22.421Z,9.95
2023-04-08T13:05:49.731Z,10.45
2023-04-08T13:08:17.731Z,9.27
2023-04-08T13:10:44.832Z,10.98
2023-04-08T13:13:14.222Z,13.80
2023-04-08T13:15:41.261Z,8.60
2023-04-08T13:18:08.399Z,9.52
2023-04-08T13:20:35.746Z,9.90
2023-04-08T13:23:02.731Z,9.07
2023-04-08T13:25:29.829Z,8.48
2023-04-08T13:27:56.921Z,9.82
2023-04-08T13:30:24.030Z,8.90
2023-04-08T13:32:51.342Z,11.85
2023-04-08T13:35:18.285Z,10.57
2023-04-08T13:37:45.220Z,11.50
2023-04-08T13:40:12.387Z,10.85
2023-04-08T13:42:39.496Z,10.35
2023-04-08T13:45:07.349Z,10.43
2023-04-08T13:47:35.879Z,10.88
2023-04-08T13:50:06.258Z,14.18
2023-04-08T13:52:33.304Z,10.52
2023-04-08T13:55:00.770Z,12.48
2023-04-08T13:57:27.764Z,12.93
2023-04-08T13:59:54.767Z,13.32
2023-04-08T14:02:21.962Z,12.25
2023-04-08T14:04:49.046Z,12.18
2023-04-08T14:07:17.057Z,11.88
2023-04-08T14:09:44.075Z,11.75
2023-04-08T14:12:11.173Z,11.10
2023-04-08T14:14:38.326Z,10.80
2023-04-08T14:17:05.335Z,11.18
2023-04-08T14:19:32.430Z,12.13
2023-04-08T14:21:59.394Z,12.93
2023-04-08T14:24:27.107Z,11.32
2023-04-08T14:26:54.219Z,10.50
2023-04-08T14:29:21.153Z,10.20
2023-04-08T14:31:48.146Z,11.68
2023-04-08T14:34:15.166Z,10.00
2023-04-08T14:36:42.099Z,12.02
2023-04-08T14:39:09.250Z,12.75
2023-04-08T14:41:36.143Z,12.75
2023-04-08T14:44:04.409Z,12.88
2023-04-08T14:46:31.766Z,12.57
2023-04-08T14:48:58.980Z,15.68
2023-04-08T14:51:26.552Z,11.93
2023-04-08T14:53:53.586Z,11.75
2023-04-08T14:56:20.616Z,11.48
2023-04-08T14:58:47.582Z,12.48
2023-04-08T15:01:14.720Z,12.32
2023-04-08T15:03:41.917Z,15.32
2023-04-08T15:06:09.153Z,12.65
2023-04-08T15:08:36.580Z,15.00
2023-04-08T15:11:03.665Z,14.35
2023-04-08T15:13:30.830Z,13.32
2023-04-08T15:15:57.770Z,12.23
2023-04-08T15:18:24.786Z,13.63
2023-04-08T15:20:52.153Z,15.32
2023-04-08T15:23:19.204Z,15.85
2023-04-08T15:25:46.502Z,15.30
2023-04-08T15:28:13.513Z,15.38
2023-04-08T15:30:40.597Z,15.57
2023-04-08T15:33:07.647Z,12.88
2023-04-08T15:35:34.847Z,12.55
2023-04-08T15:38:01.889Z,14.18
2023-04-08T15:40:28.899Z,13.77
2023-04-08T15:42:56.525Z,16.77
2023-04-08T15:45:23.536Z,18.02
2023-04-08T15:47:51.209Z,16.88
2023-04-08T15:50:18.529Z,18.20
2023-04-08T15:52:45.832Z,19.50
2023-04-08T15:55:13.078Z,18.92
2023-04-08T15:57:40.061Z,18.30
2023-04-08T16:00:10.002Z,18.92
2023-04-08T16:02:37.634Z,20.98
2023-04-08T16:05:05.406Z,19.10
2023-04-08T16:07:32.781Z,19.95
2023-04-08T16:09:59.947Z,20.63
2023-04-08T16:12:27.079Z,18.08
2023-04-08T16:14:54.187Z,22.75
2023-04-08T16:17:21.993Z,20.75
2023-04-08T16:19:51.806Z,21.98
2023-04-08T16:22:19.417Z,22.30
2023-04-08T16:24:46.573Z,22.17
2023-04-08T16:27:13.844Z,22.40
2023-04-08T16:29:40.918Z,19.58
2023-04-08T16:32:09.026Z,21.83
2023-04-08T16:34:36.274Z,15.40
2023-04-08T16:37:03.354Z,22.83
2023-04-08T16:39:30.323Z,22.50
2023-04-08T16:41:57.282Z,20.13
2023-04-08T16:44:24.369Z,22.98
2023-04-08T16:46:51.451Z,18.58
2023-04-08T16:49:18.557Z,20.45
2023-04-08T16:51:45.655Z,23.10
2023-04-08T16:54:12.646Z,22.30
2023-04-08T16:56:44.400Z,19.98
2023-04-08T16:59:14.695Z,21.25
2023-04-08T17:01:41.802Z,21.33
2023-04-08T17:04:08.849Z,19.55
2023-04-08T17:06:36.622Z,19.48
2023-04-08T17:09:04.080Z,20.77
2023-04-08T17:11:31.530Z,21.70
2023-04-08T17:13:59.811Z,24.50
2023-04-08T17:16:26.876Z,23.83
2023-04-08T17:18:53.889Z,22.85
2023-04-08T17:21:20.941Z,23.80
2023-04-08T17:23:47.951Z,25.52
2023-04-08T17:26:14.960Z,26.35
2023-04-08T17:28:41.987Z,27.77
2023-04-08T17:31:10.150Z,29.40
2023-04-08T17:33:38.206Z,24.05
2023-04-08T17:36:05.715Z,24.42
2023-04-08T17:38:32.986Z,26.77
2023-04-08T17:40:59.942Z,26.70
2023-04-08T17:43:27.334Z,26.25
2023-04-08T17:45:58.666Z,29.30
2023-04-08T17:48:25.764Z,30.30
2023-04-08T17:51:03.252Z,28.42
2023-04-08T17:53:31.192Z,25.67
2023-04-08T17:55:58.629Z,27.67
2023-04-08T17:58:26.360Z,27.90
2023-04-08T18:00:53.388Z,30.80
2023-04-08T18:03:20.726Z,29.42
2023-04-08T18:05:47.846Z,29.75
2023-04-08T18:08:14.855Z,28.85
2023-04-08T18:10:43.525Z,29.10
2023-04-08T18:13:11.944Z,26.98
2023-04-08T18:15:39.455Z,30.27
2023-04-08T18:18:06.489Z,27.13
2023-04-08T18:20:37.649Z,30.55
2023-04-08T18:23:04.927Z,30.88
2023-04-08T18:25:32.495Z,28.97
2023-04-08T18:27:59.682Z,30.27
2023-04-08T18:30:26.882Z,30.25
2023-04-08T18:32:54.002Z,33.67
2023-04-08T18:35:21.226Z,36.33
2023-04-08T18:37:48.360Z,35.47
2023-04-08T18:40:15.602Z,37.03
2023-04-08T18:42:42.636Z,32.70
2023-04-08T18:45:09.943Z,28.33
2023-04-08T18:47:37.880Z,29.77
2023-04-08T18:50:06.565Z,32.97
2023-04-08T18:52:33.897Z,30.37
2023-04-08T18:55:01.000Z,30.53
2023-04-08T18:57:27.926Z,29.73
2023-04-08T18:59:54.928Z,29.33
2023-04-08T19:02:22.889Z,27.77
2023-04-08T19:04:50.061Z,27.58
2023-04-08T19:07:17.833Z,26.37
2023-04-08T19:09:44.906Z,26.30
2023-04-08T19:12:12.106Z,23.13
2023-04-08T19:14:39.686Z,26.23
2023-04-08T19:17:06.797Z,27.50
2023-04-08T19:19:34.567Z,29.33
2023-04-08T19:22:03.205Z,32.57
2023-04-08T19:24:30.324Z,30.70
2023-04-08T19:26:57.292Z,36.57
2023-04-08T19:29:24.557Z,39.53
2023-04-08T19:31:53.082Z,37.93
2023-04-08T19:34:20.059Z,40.97
2023-04-08T19:36:47.863Z,40.87
2023-04-08T19:39:14.879Z,35.50
2023-04-08T19:41:41.896Z,35.80
2023-04-08T19:44:08.988Z,35.07
2023-04-08T19:46:35.900Z,37.37
2023-04-08T19:49:03.397Z,35.70
2023-04-08T19:51:31.469Z,34.53
2023-04-08T19:53:58.820Z,31.23
2023-04-08T19:56:25.826Z,33.87
2023-04-08T19:58:53.433Z,35.87
2023-04-08T20:01:20.618Z,34.83
2023-04-08T20:03:50.676Z,36.70
2023-04-08T20:06:19.109Z,39.20
2023-04-08T20:08:46.829Z,43.37
2023-04-08T20:11:14.358Z,85.53
2023-04-08T20:13:41.823Z,49.07
2023-04-08T20:16:09.009Z,41.57
2023-04-08T20:18:36.008Z,42.27
2023-04-08T20:21:03.037Z,46.47
2023-04-08T20:23:30.337Z,45.17
2023-04-08T20:25:58.170Z,44.57
2023-04-08T20:28:25.725Z,48.77
2023-04-08T20:30:54.074Z,46.60
2023-04-08T20:33:21.200Z,44.40
2023-04-08T20:35:50.499Z,46.30
2023-04-08T20:38:17.672Z,44.00
2023-04-08T20:40:45.203Z,42.27
2023-04-08T20:43:12.531Z,43.20
2023-04-08T20:45:39.728Z,40.33
2023-04-08T20:48:07.636Z,44.53
2023-04-08T20:50:35.108Z,40.70
2023-04-08T20:53:02.298Z,41.70
2023-04-08T20:55:29.360Z,39.30
2023-04-08T20:57:56.372Z,44.40
2023-04-08T21:00:23.422Z,41.40
2023-04-08T21:02:51.106Z,43.57
2023-04-08T21:05:18.405Z,49.17
2023-04-08T21:07:45.632Z,45.63
2023-04-08T21:10:14.230Z,42.77
2023-04-08T21:12:41.229Z,41.33
2023-04-08T21:15:09.244Z,37.33
2023-04-08T21:17:36.311Z,39.37
2023-04-08T21:20:04.703Z,42.17
2023-04-08T21:22:32.825Z,46.00
2023-04-08T21:24:59.803Z,43.37
2023-04-08T21:27:28.646Z,41.33
2023-04-08T21:29:55.960Z,44.87
2023-04-08T21:32:29.517Z,45.33
2023-04-08T21:34:57.042Z,44.83
2023-04-08T21:37:24.053Z,40.87
2023-04-08T21:39:51.532Z,41.07
2023-04-08T21:42:22.659Z,42.33
2023-04-08T21:44:50.018Z,36.97
2023-04-08T21:47:17.822Z,41.70
2023-04-08T21:49:45.391Z,40.70
2023-04-08T21:52:12.519Z,39.93
2023-04-08T21:54:39.591Z,36.70
2023-04-08T21:57:07.032Z,36.30
2023-04-08T21:59:34.036Z,41.87
2023-04-08T22:02:01.124Z,40.33
2023-04-08T22:04:28.327Z,41.43
2023-04-08T22:06:55.327Z,41.17
2023-04-08T22:09:22.455Z,37.93
2023-04-08T22:11:49.430Z,43.43
2023-04-08T22:14:17.520Z,41.13
2023-04-08T22:16:45.064Z,40.93
2023-04-08T22:19:12.168Z,35.43
2023-04-08T22:21:39.400Z,45.00
2023-04-08T22:24:06.630Z,40.00
2023-04-08T22:26:33.577Z,36.80
2023-04-08T22:29:00.546Z,41.33
2023-04-08T22:31:27.599Z,42.10
2023-04-08T22:33:54.560Z,41.17
2023-04-08T22:36:21.508Z,46.07
2023-04-08T22:38:48.438Z,41.93
2023-04-08T22:41:20.891Z,38.60
2023-04-08T22:43:49.086Z,42.43
2023-04-08T22:46:18.455Z,38.93
2023-04-08T22:48:46.848Z,41.60
2023-04-08T22:51:14.036Z,38.53
2023-04-08T22:53:41.149Z,37.90
2023-04-08T22:56:08.167Z,39.57
2023-04-08T22:58:35.373Z,39.53
2023-04-08T23:01:18.020Z,37.60
2023-04-08T23:03:45.151Z,41.50
2023-04-08T23:06:12.311Z,37.10
2023-04-08T23:08:39.473Z,40.00
2023-04-08T23:11:07.386Z,37.07
2023-04-08T23:13:34.892Z,37.87
2023-04-08T23:16:02.475Z,38.30
2023-04-08T23:18:29.535Z,38.47
2023-04-08T23:20:58.449Z,41.97
2023-04-08T23:23:26.192Z,38.13
2023-04-08T23:25:55.676Z,38.67
2023-04-08T23:28:23.656Z,42.87
2023-04-08T23:30:50.691Z,38.77
2023-04-08T23:33:17.885Z,36.73
2023-04-08T23:35:44.969Z,43.33
2023-04-08T23:38:12.313Z,41.17
2023-04-08T23:40:39.423Z,39.77
2023-04-08T23:43:06.418Z,38.87
2023-04-08T23:45:33.370Z,40.77
2023-04-08T23:48:00.478Z,39.20
2023-04-08T23:50:27.497Z,36.60
2023-04-08T23:52:54.495Z,36.40
2023-04-08T23:55:21.404Z,42.83
2023-04-08T23:57:50.629Z,39.50
